地図

経路データ

SID SEASON NUMBER BASIN SUBBASIN NAME ISO_TIME NATURE LAT LON WMO_WIND WMO_PRES WMO_AGENCY TRACK_TYPE DIST2LAND LANDFALL IFLAG USA_AGENCY USA_ATCF_ID USA_LAT USA_LON USA_RECORD USA_STATUS USA_WIND USA_PRES USA_SSHS USA_R34_NE USA_R34_SE USA_R34_SW USA_R34_NW USA_R50_NE USA_R50_SE USA_R50_SW USA_R50_NW USA_R64_NE USA_R64_SE USA_R64_SW USA_R64_NW USA_POCI USA_ROCI USA_RMW USA_EYE TOKYO_LAT TOKYO_LON TOKYO_GRADE TOKYO_WIND TOKYO_PRES TOKYO_R50_DIR TOKYO_R50_LONG TOKYO_R50_SHORT TOKYO_R30_DIR TOKYO_R30_LONG TOKYO_R30_SHORT TOKYO_LAND CMA_LAT CMA_LON CMA_CAT CMA_WIND CMA_PRES HKO_LAT HKO_LON HKO_CAT HKO_WIND HKO_PRES NEWDELHI_LAT NEWDELHI_LON NEWDELHI_GRADE NEWDELHI_WIND NEWDELHI_PRES NEWDELHI_CI NEWDELHI_DP NEWDELHI_POCI REUNION_LAT REUNION_LON REUNION_TYPE REUNION_WIND REUNION_PRES REUNION_TNUM REUNION_CI REUNION_RMW REUNION_R34_NE REUNION_R34_SE REUNION_R34_SW REUNION_R34_NW REUNION_R50_NE REUNION_R50_SE REUNION_R50_SW REUNION_R50_NW REUNION_R64_NE REUNION_R64_SE REUNION_R64_SW REUNION_R64_NW BOM_LAT BOM_LON BOM_TYPE BOM_WIND BOM_PRES BOM_TNUM BOM_CI BOM_RMW BOM_R34_NE BOM_R34_SE BOM_R34_SW BOM_R34_NW BOM_R50_NE BOM_R50_SE BOM_R50_SW BOM_R50_NW BOM_R64_NE BOM_R64_SE BOM_R64_SW BOM_R64_NW BOM_ROCI BOM_POCI BOM_EYE BOM_POS_METHOD BOM_PRES_METHOD NADI_LAT NADI_LON NADI_CAT NADI_WIND NADI_PRES WELLINGTON_LAT WELLINGTON_LON WELLINGTON_WIND WELLINGTON_PRES DS824_LAT DS824_LON DS824_STAGE DS824_WIND DS824_PRES TD9636_LAT TD9636_LON TD9636_STAGE TD9636_WIND TD9636_PRES TD9635_LAT TD9635_LON TD9635_WIND TD9635_PRES TD9635_ROCI NEUMANN_LAT NEUMANN_LON NEUMANN_CLASS NEUMANN_WIND NEUMANN_PRES MLC_LAT MLC_LON MLC_CLASS MLC_WIND MLC_PRES USA_GUST BOM_GUST BOM_GUST_PER REUNION_GUST REUNION_GUST_PER USA_SEAHGT USA_SEARAD_NE USA_SEARAD_SE USA_SEARAD_SW USA_SEARAD_NW STORM_SPEED STORM_DIR
1915047N17146 1915 5 WP MM NOT_NAMED 1915-02-16 09:00:00 NR 17.0000 146.300 main 2097 2070 __________O___ -1 17.0000 146.300 4 6 313
1915047N17146 1915 5 WP MM NOT_NAMED 1915-02-16 12:00:00 NR 17.1984 146.073 main 2070 2040 __________P___ -1 17.1984 146.073 4 6 313
1915047N17146 1915 5 WP MM NOT_NAMED 1915-02-16 15:00:00 NR 17.4274 145.817 main 2040 1999 __________P___ -1 17.4274 145.817 4 8 314
1915047N17146 1915 5 WP MM NOT_NAMED 1915-02-16 18:00:00 NR 17.7177 145.503 main 1999 1943 __________P___ -1 17.7177 145.503 4 10 315
1915047N17146 1915 5 WP MM NOT_NAMED 1915-02-16 21:00:00 NR 18.1000 145.100 main 1943 1870 __________O___ -1 18.1000 145.100 4 12 315
1915047N17146 1915 5 WP MM NOT_NAMED 1915-02-17 00:00:00 NR 18.5942 144.587 main 1870 1792 __________P___ -1 18.5942 144.587 4 15 315
1915047N17146 1915 5 WP MM NOT_NAMED 1915-02-17 03:00:00 NR 19.1795 143.971 main 1782 1690 __________P___ -1 19.1795 143.971 4 18 315
1915047N17146 1915 5 WP MM NOT_NAMED 1915-02-17 06:00:00 NR 19.8250 143.270 main 1690 1584 __________P___ -1 19.8250 143.270 4 19 314
1915047N17146 1915 5 WP MM NOT_NAMED 1915-02-17 09:00:00 NR 20.5000 142.500 main 1584 1491 __________O___ -1 20.5000 142.500 4 20 310
1915047N17146 1915 5 WP MM NOT_NAMED 1915-02-17 12:00:00 NR 21.1150 141.629 main 1487 1395 __________P___ -1 21.1150 141.629 4 21 307
1915047N17146 1915 5 WP MM NOT_NAMED 1915-02-17 15:00:00 NR 21.7559 140.705 main 1381 1292 __________P___ -1 21.7559 140.705 4 22 308
1915047N17146 1915 5 WP MM NOT_NAMED 1915-02-17 18:00:00 NR 22.4434 139.804 main 1289 1180 __________P___ -1 22.4434 139.804 4 21 312
1915047N17146 1915 5 WP MM NOT_NAMED 1915-02-17 21:00:00 NR 23.2000 139.000 main 1180 1068 __________O___ -1 23.2000 139.000 4 21 319
1915047N17146 1915 5 WP MM NOT_NAMED 1915-02-18 00:00:00 NR 24.0356 138.274 main 1068 952 __________P___ -1 24.0356 138.274 4 21 325
1915047N17146 1915 5 WP MM NOT_NAMED 1915-02-18 03:00:00 NR 24.9437 137.669 main 952 834 __________P___ -1 24.9437 137.669 4 21 333
1915047N17146 1915 5 WP MM NOT_NAMED 1915-02-18 06:00:00 NR 25.9048 137.229 main 834 745 __________P___ -1 25.9048 137.229 4 21 343
1915047N17146 1915 5 WP MM NOT_NAMED 1915-02-18 09:00:00 NR 26.9000 137.000 main 734 632 __________O___ -1 26.9000 137.000 4 20 350
1915047N17146 1915 5 WP MM NOT_NAMED 1915-02-18 12:00:00 NR 27.8773 136.840 main 621 523 __________P___ -1 27.8773 136.840 4 20 358
1915047N17146 1915 5 WP MM NOT_NAMED 1915-02-18 15:00:00 NR 28.8860 136.918 main 512 415 __________P___ -1 28.8860 136.918 4 21 11
1915047N17146 1915 5 WP MM NOT_NAMED 1915-02-18 18:00:00 NR 29.9272 137.285 main 415 341 __________P___ -1 29.9272 137.285 4 23 24
1915047N17146 1915 5 WP MM NOT_NAMED 1915-02-18 21:00:00 NR 31.0000 138.000 main 338 279 __________O___ -1 31.0000 138.000 4 27 35
1915047N17146 1915 5 WP MM NOT_NAMED 1915-02-19 00:00:00 NR 32.1391 139.117 main 280 195 __________P___ -1 32.1391 139.117 4 32 44
1915047N17146 1915 5 WP MM NOT_NAMED 1915-02-19 03:00:00 NR 33.2865 140.590 main 189 172 __________P___ -1 33.2865 140.590 4 35 50
1915047N17146 1915 5 WP MM NOT_NAMED 1915-02-19 06:00:00 NR 34.3890 142.271 main 192 192 __________P___ -1 34.3890 142.271 4 35 53
1915047N17146 1915 5 WP MM NOT_NAMED 1915-02-19 09:00:00 NR 35.4000 144.000 main 281 281 __________O___ -1 35.4000 144.000 4 33 55
1915047N17146 1915 5 WP MM NOT_NAMED 1915-02-19 12:00:00 NR 36.2932 145.643 main 416 416 __________P___ -1 36.2932 145.643 4 31 57
1915047N17146 1915 5 WP MM NOT_NAMED 1915-02-19 15:00:00 NR 37.0889 147.200 main 516 516 __________P___ -1 37.0889 147.200 4 29 58
1915047N17146 1915 5 WP MM NOT_NAMED 1915-02-19 18:00:00 NR 37.8159 148.706 main 601 601 __________P___ -1 37.8159 148.706 4 28 59
1915047N17146 1915 5 WP MM NOT_NAMED 1915-02-19 21:00:00 NR 38.5000 150.200 main 654 __________O___ -1 38.5000 150.200 4 27 60

デジタル台風データ・検索

IBTrACS Databaseについて

本データベースは、米国NOAAが公開する1842年以降の世界の熱帯低気圧のベストトラックデータアーカイブInternational Best Track Archive for Climate Stewardship (IBTrACS)を、ウェブで閲覧しやすい形式に変換したものです。

最終更新日:2021-12-08